createdAt,value
2023-04-18T00:00:02.987Z,6.40
2023-04-18T00:01:02.962Z,6.45
2023-04-18T00:02:03.052Z,6.45
2023-04-18T00:03:04.709Z,6.48
2023-04-18T00:04:04.146Z,6.55
2023-04-18T00:05:03.011Z,6.39
2023-04-18T00:06:02.910Z,6.46
2023-04-18T00:07:02.905Z,6.48
2023-04-18T00:08:02.902Z,6.57
2023-04-18T00:09:02.923Z,6.42
2023-04-18T00:10:02.896Z,6.42
2023-04-18T00:11:02.871Z,6.36
2023-04-18T00:12:02.858Z,6.32
2023-04-18T00:13:02.846Z,6.39
2023-04-18T00:14:02.835Z,6.40
2023-04-18T00:15:02.864Z,6.36
2023-04-18T00:16:02.845Z,6.38
2023-04-18T00:17:02.951Z,6.24
2023-04-18T00:18:02.831Z,6.13
2023-04-18T00:19:02.822Z,6.20
2023-04-18T00:20:02.818Z,6.24
2023-04-18T00:21:02.772Z,6.30
2023-04-18T00:22:02.759Z,6.16
2023-04-18T00:23:02.751Z,6.16
2023-04-18T00:24:02.762Z,6.16
2023-04-18T00:25:02.762Z,6.13
2023-04-18T00:26:02.756Z,6.13
2023-04-18T00:27:02.714Z,6.20
2023-04-18T00:28:02.714Z,6.19
2023-04-18T00:29:02.714Z,6.11
2023-04-18T00:30:02.700Z,6.11
2023-04-18T00:31:02.738Z,6.08
2023-04-18T00:32:02.679Z,6.10
2023-04-18T00:33:02.690Z,6.14
2023-04-18T00:34:02.699Z,6.13
2023-04-18T00:35:02.660Z,6.11
2023-04-18T00:36:02.640Z,6.02
2023-04-18T00:37:02.629Z,5.99
2023-04-18T00:38:02.618Z,6.03
2023-04-18T00:39:02.620Z,5.98
2023-04-18T00:40:02.600Z,6.03
2023-04-18T00:41:02.588Z,6.02
2023-04-18T00:42:02.586Z,5.98
2023-04-18T00:43:02.570Z,6.02
2023-04-18T00:44:02.557Z,5.99
2023-04-18T00:45:02.572Z,5.98
2023-04-18T00:46:02.601Z,6.02
2023-04-18T00:47:02.566Z,5.96
2023-04-18T00:48:02.571Z,5.88
2023-04-18T00:49:02.520Z,5.93
2023-04-18T00:50:02.527Z,6.02
2023-04-18T00:51:02.508Z,5.99
2023-04-18T00:52:02.502Z,5.96
2023-04-18T00:53:02.484Z,5.92
2023-04-18T00:54:02.479Z,5.88
2023-04-18T00:55:02.484Z,5.87
2023-04-18T00:56:03.461Z,5.88
2023-04-18T00:57:02.452Z,6.01
2023-04-18T00:58:02.443Z,5.90
2023-04-18T00:59:02.429Z,5.95
2023-04-18T01:00:02.454Z,5.92
2023-04-18T01:01:02.424Z,5.99
2023-04-18T01:02:02.529Z,6.03
2023-04-18T01:03:02.705Z,6.02
2023-04-18T01:04:02.479Z,5.99
2023-04-18T01:05:02.406Z,6.03
2023-04-18T01:06:02.368Z,5.93
2023-04-18T01:07:02.367Z,6.02
2023-04-18T01:08:02.385Z,5.95
2023-04-18T01:09:02.342Z,5.92
2023-04-18T01:10:02.367Z,5.92
2023-04-18T01:11:02.326Z,5.88
2023-04-18T01:12:02.313Z,5.87
2023-04-18T01:13:02.357Z,5.95
2023-04-18T01:14:02.289Z,5.92
2023-04-18T01:15:03.308Z,5.92
2023-04-18T01:16:02.322Z,5.88
2023-04-18T01:17:02.300Z,5.75
2023-04-18T01:18:02.287Z,5.87
2023-04-18T01:19:02.254Z,5.95
2023-04-18T01:20:02.252Z,5.85
2023-04-18T01:21:02.229Z,5.99
2023-04-18T01:22:02.225Z,5.92
2023-04-18T01:23:02.210Z,5.84
2023-04-18T01:24:02.207Z,5.84
2023-04-18T01:25:02.249Z,5.75
2023-04-18T01:26:02.182Z,5.67
2023-04-18T01:27:02.242Z,5.74
2023-04-18T01:28:02.167Z,5.78
2023-04-18T01:29:02.157Z,5.81
2023-04-18T01:30:02.275Z,5.78
2023-04-18T01:31:02.155Z,5.85
2023-04-18T01:32:02.126Z,5.69
2023-04-18T01:33:02.224Z,5.70
2023-04-18T01:34:02.114Z,5.75
2023-04-18T01:35:02.116Z,5.67
2023-04-18T01:36:02.096Z,5.78
2023-04-18T01:37:02.117Z,5.77
2023-04-18T01:38:02.072Z,5.67
2023-04-18T01:39:02.065Z,5.74
2023-04-18T01:40:02.098Z,5.78
2023-04-18T01:41:02.058Z,5.80
2023-04-18T01:42:02.088Z,5.74
2023-04-18T01:43:02.121Z,5.75
2023-04-18T01:44:02.030Z,5.67
2023-04-18T01:45:02.024Z,5.67
2023-04-18T01:46:02.012Z,5.66
2023-04-18T01:47:02.083Z,5.65
2023-04-18T01:48:02.049Z,5.63
2023-04-18T01:49:01.970Z,5.78
2023-04-18T01:50:01.963Z,5.67
2023-04-18T01:51:01.972Z,5.75
2023-04-18T01:52:01.984Z,5.70
2023-04-18T01:53:01.937Z,5.70
2023-04-18T01:54:01.989Z,5.66
2023-04-18T01:55:01.915Z,5.70
2023-04-18T01:56:01.919Z,5.70
2023-04-18T01:57:01.912Z,5.70
2023-04-18T01:58:01.894Z,5.75
2023-04-18T01:59:01.886Z,5.66
2023-04-18T02:00:01.889Z,5.67
2023-04-18T02:01:01.925Z,5.70
2023-04-18T02:02:01.897Z,5.67
2023-04-18T02:03:02.109Z,5.62
2023-04-18T02:04:01.931Z,5.59
2023-04-18T02:05:01.835Z,5.60
2023-04-18T02:06:01.857Z,5.70
2023-04-18T02:07:01.866Z,5.77
2023-04-18T02:08:01.800Z,5.73
2023-04-18T02:09:01.792Z,5.70
2023-04-18T02:10:01.781Z,5.74
2023-04-18T02:11:01.788Z,5.75
2023-04-18T02:12:01.816Z,5.75
2023-04-18T02:13:01.768Z,5.75
2023-04-18T02:14:01.746Z,5.73
2023-04-18T02:15:01.744Z,5.80
2023-04-18T02:16:01.827Z,5.81
2023-04-18T02:17:01.773Z,5.74
2023-04-18T02:18:01.788Z,5.70
2023-04-18T02:19:01.699Z,5.80
2023-04-18T02:20:01.698Z,5.70
2023-04-18T02:21:01.714Z,5.84
2023-04-18T02:22:01.745Z,5.81
2023-04-18T02:23:01.668Z,5.84
2023-04-18T02:24:01.659Z,5.84
2023-04-18T02:25:01.679Z,5.88
2023-04-18T02:26:01.659Z,6.01
2023-04-18T02:27:01.634Z,5.93
2023-04-18T02:28:01.632Z,5.93
2023-04-18T02:29:01.618Z,5.98
2023-04-18T02:30:01.646Z,6.02
2023-04-18T02:31:01.611Z,6.08
2023-04-18T02:32:01.650Z,6.11
2023-04-18T02:33:01.649Z,6.16
2023-04-18T02:34:01.572Z,6.16
2023-04-18T02:35:01.618Z,6.14
2023-04-18T02:36:01.595Z,6.16
2023-04-18T02:37:01.596Z,6.17
2023-04-18T02:38:01.547Z,6.14
2023-04-18T02:39:01.564Z,6.08
2023-04-18T02:40:01.518Z,6.10
2023-04-18T02:41:01.527Z,6.06
2023-04-18T02:42:01.518Z,6.14
2023-04-18T02:43:01.601Z,6.08
2023-04-18T02:44:01.492Z,6.03
2023-04-18T02:45:01.472Z,6.14
2023-04-18T02:46:01.534Z,6.14
2023-04-18T02:47:01.546Z,6.11
2023-04-18T02:48:01.473Z,6.17
2023-04-18T02:49:01.434Z,6.19
2023-04-18T02:50:01.469Z,6.16
2023-04-18T02:51:01.449Z,6.21
2023-04-18T02:52:01.428Z,6.17
2023-04-18T02:53:01.436Z,6.14
2023-04-18T02:54:01.393Z,6.03
2023-04-18T02:55:01.384Z,6.08
2023-04-18T02:56:01.393Z,6.10
2023-04-18T02:57:01.371Z,6.24
2023-04-18T02:58:01.378Z,6.30
2023-04-18T02:59:01.425Z,6.24
2023-04-18T03:00:01.350Z,6.21
2023-04-18T03:01:01.376Z,6.20
2023-04-18T03:02:01.377Z,6.19
2023-04-18T03:03:01.512Z,6.17
2023-04-18T03:04:01.303Z,6.25
2023-04-18T03:05:01.368Z,6.24
2023-04-18T03:06:01.297Z,6.17
2023-04-18T03:07:01.286Z,6.20
2023-04-18T03:08:01.273Z,6.19
2023-04-18T03:09:01.258Z,6.17
2023-04-18T03:10:01.269Z,6.13
2023-04-18T03:11:01.248Z,6.14
2023-04-18T03:12:01.228Z,6.16
2023-04-18T03:13:01.213Z,6.17
2023-04-18T03:14:01.210Z,6.13
2023-04-18T03:15:01.199Z,6.10
2023-04-18T03:16:01.245Z,6.11
2023-04-18T03:17:01.194Z,6.20
2023-04-18T03:18:01.218Z,6.19
2023-04-18T03:19:01.167Z,6.05
2023-04-18T03:20:01.174Z,6.10
2023-04-18T03:21:01.157Z,6.16
2023-04-18T03:22:01.138Z,6.21
2023-04-18T03:23:01.130Z,6.19
2023-04-18T03:24:01.128Z,6.19
2023-04-18T03:25:01.122Z,6.27
2023-04-18T03:26:01.117Z,6.32
2023-04-18T03:27:01.091Z,6.16
2023-04-18T03:28:01.089Z,6.21
2023-04-18T03:29:01.082Z,6.16
2023-04-18T03:30:01.062Z,6.05
2023-04-18T03:31:01.086Z,6.11
2023-04-18T03:32:01.049Z,6.24
2023-04-18T03:33:01.118Z,6.24
2023-04-18T03:34:01.031Z,6.10
2023-04-18T03:35:01.019Z,6.14
2023-04-18T03:36:01.036Z,6.17
2023-04-18T03:37:01.007Z,6.13
2023-04-18T03:38:00.994Z,6.14
2023-04-18T03:39:00.994Z,6.10
2023-04-18T03:40:00.966Z,6.10
2023-04-18T03:41:00.977Z,6.16
2023-04-18T03:42:00.952Z,6.17
2023-04-18T03:43:00.993Z,6.02
2023-04-18T03:44:00.937Z,6.03
2023-04-18T03:45:00.934Z,6.08
2023-04-18T03:46:00.940Z,6.03
2023-04-18T03:47:00.910Z,6.02
2023-04-18T03:48:00.944Z,6.01
2023-04-18T03:49:00.913Z,6.08
2023-04-18T03:50:00.928Z,6.02
2023-04-18T03:51:00.881Z,6.02
2023-04-18T03:52:00.908Z,6.03
2023-04-18T03:53:00.848Z,6.06
2023-04-18T03:54:00.846Z,5.98
2023-04-18T03:55:00.840Z,6.01
2023-04-18T03:56:00.844Z,5.99
2023-04-18T03:57:00.820Z,6.02
2023-04-18T03:58:00.812Z,5.96
2023-04-18T03:59:00.808Z,6.05
2023-04-18T04:00:00.797Z,6.06
2023-04-18T04:01:00.793Z,6.06
2023-04-18T04:02:00.913Z,6.05
2023-04-18T04:03:00.953Z,6.01
2023-04-18T04:04:00.848Z,6.05
2023-04-18T04:05:00.761Z,6.02
2023-04-18T04:06:00.757Z,5.96
2023-04-18T04:07:00.736Z,6.05
2023-04-18T04:08:00.728Z,6.02
2023-04-18T04:09:00.720Z,5.99
2023-04-18T04:10:00.707Z,5.98
2023-04-18T04:11:00.713Z,5.95
2023-04-18T04:12:00.692Z,5.92
2023-04-18T04:13:00.679Z,6.01
2023-04-18T04:14:00.683Z,6.05
2023-04-18T04:15:00.702Z,6.02
2023-04-18T04:16:00.738Z,6.14
2023-04-18T04:17:00.636Z,6.25
2023-04-18T04:18:00.656Z,6.11
2023-04-18T04:19:00.621Z,6.19
2023-04-18T04:20:00.641Z,6.17
2023-04-18T04:21:00.625Z,6.19
2023-04-18T04:22:00.605Z,6.19
2023-04-18T04:23:00.605Z,6.17
2023-04-18T04:24:00.577Z,6.02
2023-04-18T04:25:00.569Z,6.02
2023-04-18T04:26:00.576Z,6.02
2023-04-18T04:27:00.554Z,6.03
2023-04-18T04:28:00.529Z,6.08
2023-04-18T04:29:01.571Z,6.02
2023-04-18T04:30:00.526Z,6.14
2023-04-18T04:31:00.616Z,6.10
2023-04-18T04:32:00.543Z,6.14
2023-04-18T04:33:00.505Z,6.11
2023-04-18T04:34:00.495Z,6.08
2023-04-18T04:35:00.486Z,6.11
2023-04-18T04:36:00.491Z,6.08
2023-04-18T04:37:00.460Z,6.21
2023-04-18T04:38:00.451Z,6.11
2023-04-18T04:39:00.440Z,6.28
2023-04-18T04:40:00.436Z,6.30
2023-04-18T04:41:00.439Z,6.28
2023-04-18T04:42:00.426Z,6.25
2023-04-18T04:43:00.403Z,6.14
2023-04-18T04:44:00.400Z,6.08
2023-04-18T04:45:00.460Z,6.16
2023-04-18T04:46:00.397Z,6.16
2023-04-18T04:47:01.372Z,6.24
2023-04-18T04:48:00.422Z,6.13
2023-04-18T04:49:00.362Z,6.16
2023-04-18T04:50:00.360Z,6.20
2023-04-18T04:51:00.344Z,6.20
2023-04-18T04:52:01.893Z,6.19
2023-04-18T04:53:00.321Z,6.28
2023-04-18T04:54:00.309Z,6.14
2023-04-18T04:55:00.300Z,6.20
2023-04-18T04:56:00.335Z,6.24
2023-04-18T04:57:00.284Z,6.19
2023-04-18T04:58:00.270Z,6.24
2023-04-18T04:59:00.292Z,6.30
2023-04-18T05:00:00.269Z,6.28
2023-04-18T05:01:00.294Z,6.25
2023-04-18T05:02:00.289Z,6.20
2023-04-18T05:03:00.356Z,6.20
2023-04-18T05:04:00.413Z,6.10
2023-04-18T05:05:00.225Z,6.27
2023-04-18T05:06:00.228Z,6.30
2023-04-18T05:07:00.198Z,6.24
2023-04-18T05:08:00.228Z,6.30
2023-04-18T05:09:00.180Z,6.27
2023-04-18T05:10:00.189Z,6.16
2023-04-18T05:11:00.214Z,6.14
2023-04-18T05:12:00.150Z,6.16
2023-04-18T05:13:00.144Z,6.16
2023-04-18T05:14:00.124Z,6.13
2023-04-18T05:15:00.138Z,6.20
2023-04-18T05:16:00.122Z,6.13
2023-04-18T05:17:00.231Z,6.32
2023-04-18T05:18:00.175Z,6.33
2023-04-18T05:19:00.095Z,6.30
2023-04-18T05:20:00.091Z,6.25
2023-04-18T05:21:00.082Z,6.33
2023-04-18T05:22:00.098Z,6.27
2023-04-18T05:23:00.056Z,6.27
2023-04-18T05:24:00.062Z,6.17
2023-04-18T05:25:00.036Z,6.30
2023-04-18T05:26:00.046Z,6.24
2023-04-18T05:27:00.016Z,6.16
2023-04-18T05:27:59.996Z,6.24
2023-04-18T05:29:00.000Z,6.27
2023-04-18T05:29:59.981Z,6.16
2023-04-18T05:30:59.995Z,6.19
2023-04-18T05:32:00.968Z,6.19
2023-04-18T05:32:59.984Z,6.14
2023-04-18T05:33:59.942Z,6.08
2023-04-18T05:34:59.941Z,6.17
2023-04-18T05:35:59.951Z,6.21
2023-04-18T05:36:59.915Z,6.27
2023-04-18T05:37:59.961Z,6.19
2023-04-18T05:38:59.898Z,6.30
2023-04-18T05:40:00.907Z,6.30
2023-04-18T05:41:00.894Z,6.20
2023-04-18T05:41:59.866Z,6.25
2023-04-18T05:42:59.862Z,6.33
2023-04-18T05:44:05.216Z,6.38
2023-04-18T05:45:01.857Z,6.28
2023-04-18T05:45:59.897Z,6.21
2023-04-18T05:46:59.828Z,6.20
2023-04-18T05:47:59.880Z,6.32
2023-04-18T05:48:59.833Z,6.20
2023-04-18T05:49:59.800Z,6.05
2023-04-18T05:50:59.866Z,6.11
2023-04-18T05:51:59.785Z,6.16
2023-04-18T05:52:59.783Z,6.17
2023-04-18T05:53:59.762Z,6.14
2023-04-18T05:54:59.762Z,6.16
2023-04-18T05:55:59.762Z,6.16
2023-04-18T05:56:59.744Z,6.03
2023-04-18T05:57:59.731Z,6.19
2023-04-18T05:58:59.722Z,6.20
2023-04-18T05:59:59.713Z,6.16
2023-04-18T06:00:59.710Z,6.10
2023-04-18T06:01:59.733Z,5.98
2023-04-18T06:03:00.011Z,6.11
2023-04-18T06:03:59.812Z,6.24
2023-04-18T06:04:59.836Z,6.30
2023-04-18T06:05:59.756Z,6.21
2023-04-18T06:06:59.788Z,6.20
2023-04-18T06:07:59.641Z,6.17
2023-04-18T06:08:59.639Z,6.25
2023-04-18T06:09:59.653Z,6.28
2023-04-18T06:10:59.623Z,6.25
2023-04-18T06:11:59.665Z,6.30
2023-04-18T06:12:59.597Z,6.43
2023-04-18T06:13:59.583Z,6.36
2023-04-18T06:14:59.571Z,6.48
2023-04-18T06:15:59.602Z,6.30
2023-04-18T06:16:59.583Z,6.32
2023-04-18T06:17:59.619Z,6.27
2023-04-18T06:19:01.240Z,6.27
2023-04-18T06:20:00.522Z,6.27
2023-04-18T06:21:00.530Z,6.10
2023-04-18T06:21:59.526Z,6.14
2023-04-18T06:22:59.562Z,6.16
2023-04-18T06:23:59.502Z,6.20
2023-04-18T06:24:59.494Z,6.24
2023-04-18T06:25:59.512Z,6.27
2023-04-18T06:26:59.475Z,6.32
2023-04-18T06:27:59.468Z,6.30
2023-04-18T06:28:59.452Z,6.32
2023-04-18T06:29:59.455Z,6.27
2023-04-18T06:30:59.469Z,6.32
2023-04-18T06:31:59.480Z,6.14
2023-04-18T06:32:59.485Z,6.03
2023-04-18T06:33:59.410Z,6.05
2023-04-18T06:34:59.401Z,6.13
2023-04-18T06:35:59.412Z,6.13
2023-04-18T06:36:59.381Z,6.13
2023-04-18T06:37:59.420Z,6.11
2023-04-18T06:38:59.487Z,6.17
2023-04-18T06:39:59.367Z,6.05
2023-04-18T06:40:59.360Z,6.21
2023-04-18T06:41:59.335Z,6.16
2023-04-18T06:42:59.327Z,6.28
2023-04-18T06:44:04.143Z,6.27
2023-04-18T06:45:01.306Z,6.38
2023-04-18T06:45:59.360Z,6.36
2023-04-18T06:46:59.302Z,6.33
2023-04-18T06:47:59.315Z,6.38
2023-04-18T06:48:59.268Z,6.32
2023-04-18T06:49:59.259Z,6.36
2023-04-18T06:50:59.263Z,6.39
2023-04-18T06:51:59.237Z,6.24
2023-04-18T06:52:59.225Z,6.33
2023-04-18T06:53:59.216Z,6.39
2023-04-18T06:54:59.206Z,6.25
2023-04-18T06:55:59.210Z,6.36
2023-04-18T06:56:59.213Z,6.35
2023-04-18T06:57:59.177Z,6.28
2023-04-18T06:58:59.175Z,6.39
2023-04-18T06:59:59.171Z,6.35
2023-04-18T07:00:59.240Z,6.40
2023-04-18T07:01:59.158Z,6.32
2023-04-18T07:02:59.274Z,6.33
2023-04-18T07:03:59.241Z,6.43
2023-04-18T07:04:59.118Z,6.42
2023-04-18T07:05:59.115Z,6.45
2023-04-18T07:06:59.102Z,6.46
2023-04-18T07:07:59.086Z,6.40
2023-04-18T07:08:59.079Z,6.43
2023-04-18T07:09:59.074Z,6.54
2023-04-18T07:10:59.282Z,6.51
2023-04-18T07:11:59.049Z,6.54
2023-04-18T07:12:59.042Z,6.54
2023-04-18T07:13:59.038Z,6.51
2023-04-18T07:14:59.021Z,6.32
2023-04-18T07:15:59.020Z,6.28
2023-04-18T07:16:59.063Z,6.40
2023-04-18T07:17:59.038Z,6.46
2023-04-18T07:18:58.996Z,6.50
2023-04-18T07:19:58.977Z,6.48
2023-04-18T07:20:58.973Z,6.43
2023-04-18T07:21:59.002Z,6.36
2023-04-18T07:22:58.948Z,6.54
2023-04-18T07:23:58.939Z,6.60
2023-04-18T07:24:58.974Z,6.60
2023-04-18T07:25:59.934Z,6.65
2023-04-18T07:26:59.027Z,6.63
2023-04-18T07:27:58.907Z,6.53
2023-04-18T07:28:58.889Z,6.57
2023-04-18T07:29:58.882Z,6.46
2023-04-18T07:30:58.918Z,6.42
2023-04-18T07:31:58.900Z,6.48
2023-04-18T07:32:58.889Z,6.38
2023-04-18T07:33:58.869Z,6.51
2023-04-18T07:34:58.848Z,6.45
2023-04-18T07:35:58.841Z,6.46
2023-04-18T07:36:58.832Z,6.45
2023-04-18T07:37:58.863Z,6.57
2023-04-18T07:38:58.803Z,6.54
2023-04-18T07:39:58.806Z,6.61
2023-04-18T07:40:58.794Z,6.65
2023-04-18T07:41:58.781Z,6.73
2023-04-18T07:42:58.830Z,6.64
2023-04-18T07:43:58.762Z,6.72
2023-04-18T07:44:58.755Z,6.72
2023-04-18T07:45:58.778Z,6.63
2023-04-18T07:46:58.737Z,6.55
2023-04-18T07:47:58.736Z,6.69
2023-04-18T07:48:58.716Z,6.73
2023-04-18T07:49:58.729Z,6.71
2023-04-18T07:50:58.710Z,6.86
2023-04-18T07:51:58.691Z,6.63
2023-04-18T07:52:58.676Z,6.68
2023-04-18T07:53:58.668Z,6.75
2023-04-18T07:54:58.676Z,6.68
2023-04-18T07:55:58.661Z,6.69
2023-04-18T07:56:58.644Z,6.73
2023-04-18T07:57:58.645Z,6.82
2023-04-18T07:58:58.983Z,6.68
2023-04-18T07:59:58.638Z,6.68
2023-04-18T08:00:58.619Z,6.69
2023-04-18T08:01:58.645Z,6.65
2023-04-18T08:02:58.699Z,6.69
2023-04-18T08:03:58.743Z,6.73
2023-04-18T08:04:58.819Z,6.73
2023-04-18T08:05:58.584Z,6.63
2023-04-18T08:06:58.548Z,6.69
2023-04-18T08:07:58.543Z,6.60
2023-04-18T08:08:58.529Z,6.76
2023-04-18T08:09:58.525Z,6.75
2023-04-18T08:10:58.552Z,6.71
2023-04-18T08:11:58.506Z,6.71
2023-04-18T08:12:58.499Z,6.73
2023-04-18T08:13:58.492Z,6.68
2023-04-18T08:14:58.537Z,6.65
2023-04-18T08:15:58.520Z,6.75
2023-04-18T08:16:58.461Z,6.69
2023-04-18T08:17:58.494Z,6.71
2023-04-18T08:18:58.442Z,6.72
2023-04-18T08:19:58.439Z,6.79
2023-04-18T08:20:58.439Z,6.83
2023-04-18T08:21:58.422Z,6.78
2023-04-18T08:23:07.441Z,6.76
2023-04-18T08:24:00.424Z,6.81
2023-04-18T08:25:04.425Z,6.78
2023-04-18T08:26:00.489Z,6.83
2023-04-18T08:26:58.372Z,6.83
2023-04-18T08:27:58.407Z,6.91
2023-04-18T08:28:58.350Z,6.86
2023-04-18T08:29:59.354Z,6.94
2023-04-18T08:30:58.593Z,7.00
2023-04-18T08:31:58.415Z,7.08
2023-04-18T08:32:58.340Z,6.93
2023-04-18T08:33:58.306Z,6.94
2023-04-18T08:34:58.300Z,6.93
2023-04-18T08:35:58.284Z,7.00
2023-04-18T08:36:58.291Z,7.04
2023-04-18T08:37:58.316Z,7.04
2023-04-18T08:38:58.256Z,7.01
2023-04-18T08:39:58.259Z,7.08
2023-04-18T08:40:58.248Z,7.15
2023-04-18T08:41:58.250Z,7.23
2023-04-18T08:42:58.231Z,7.37
2023-04-18T08:43:58.264Z,7.30
2023-04-18T08:44:58.210Z,7.39
2023-04-18T08:45:58.222Z,7.48
2023-04-18T08:46:58.202Z,7.45
2023-04-18T08:47:58.270Z,7.51
2023-04-18T08:48:58.183Z,7.37
2023-04-18T08:49:58.171Z,7.33
2023-04-18T08:50:58.153Z,7.51
2023-04-18T08:51:58.170Z,7.44
2023-04-18T08:52:58.135Z,7.50
2023-04-18T08:53:58.124Z,7.44
2023-04-18T08:54:58.119Z,7.48
2023-04-18T08:55:58.105Z,7.57
2023-04-18T08:56:58.110Z,7.73
2023-04-18T08:57:58.087Z,7.69
2023-04-18T08:58:58.082Z,7.73
2023-04-18T08:59:58.077Z,7.74
2023-04-18T09:00:58.076Z,7.84
2023-04-18T09:01:58.100Z,7.95
2023-04-18T09:02:58.149Z,7.96
2023-04-18T09:03:58.081Z,8.02
2023-04-18T09:04:58.041Z,7.96
2023-04-18T09:05:58.016Z,8.07
2023-04-18T09:06:58.018Z,8.09
2023-04-18T09:07:58.003Z,8.21
2023-04-18T09:08:57.990Z,8.28
2023-04-18T09:09:57.996Z,8.39
2023-04-18T09:10:57.969Z,8.45
2023-04-18T09:11:57.971Z,8.63
2023-04-18T09:12:57.951Z,8.80
2023-04-18T09:13:57.932Z,8.60
2023-04-18T09:14:57.991Z,8.22
2023-04-18T09:15:57.917Z,8.37
2023-04-18T09:16:57.972Z,8.67
2023-04-18T09:17:58.087Z,8.85
2023-04-18T09:18:57.898Z,8.65
2023-04-18T09:19:57.884Z,8.79
2023-04-18T09:20:57.877Z,8.76
2023-04-18T09:21:57.882Z,8.58
2023-04-18T09:22:57.866Z,8.61
2023-04-18T09:23:57.855Z,8.50
2023-04-18T09:24:57.849Z,8.50
2023-04-18T09:25:57.833Z,8.64
2023-04-18T09:26:57.826Z,8.64
2023-04-18T09:27:58.815Z,8.60
2023-04-18T09:28:57.796Z,8.57
2023-04-18T09:29:58.159Z,8.73
2023-04-18T09:30:58.839Z,8.88
2023-04-18T09:31:57.829Z,8.83
2023-04-18T09:32:57.855Z,8.91
2023-04-18T09:33:57.755Z,8.88
2023-04-18T09:34:57.761Z,9.06
2023-04-18T09:35:57.740Z,9.04
2023-04-18T09:36:57.883Z,9.10
2023-04-18T09:37:57.723Z,9.04
2023-04-18T09:38:57.703Z,9.10
2023-04-18T09:39:57.698Z,9.04
2023-04-18T09:40:57.711Z,9.13
2023-04-18T09:41:57.691Z,9.24
2023-04-18T09:42:57.680Z,9.19
2023-04-18T09:43:57.662Z,9.10
2023-04-18T09:44:57.661Z,9.10
2023-04-18T09:45:57.648Z,9.06
2023-04-18T09:46:57.649Z,8.93
2023-04-18T09:47:57.661Z,9.08
2023-04-18T09:48:57.621Z,9.10
2023-04-18T09:49:57.620Z,9.23
2023-04-18T09:50:57.599Z,9.12
2023-04-18T09:51:57.609Z,8.93
2023-04-18T09:52:57.578Z,9.19
2023-04-18T09:53:57.568Z,9.31
2023-04-18T09:54:57.557Z,9.12
2023-04-18T09:55:57.958Z,9.15
2023-04-18T09:56:58.544Z,9.24
2023-04-18T09:57:57.531Z,9.45
2023-04-18T09:58:57.513Z,9.67
2023-04-18T09:59:57.504Z,9.83
2023-04-18T10:00:57.506Z,9.86
2023-04-18T10:01:57.585Z,9.93
2023-04-18T10:02:57.590Z,9.83
2023-04-18T10:03:57.630Z,9.93
2023-04-18T10:04:57.509Z,9.86
2023-04-18T10:05:57.850Z,10.01
2023-04-18T10:06:58.481Z,10.13
2023-04-18T10:07:57.464Z,9.85
2023-04-18T10:08:57.413Z,9.92
2023-04-18T10:09:57.428Z,9.91
2023-04-18T10:10:57.394Z,9.80
2023-04-18T10:11:57.402Z,9.88
2023-04-18T10:12:57.388Z,9.89
2023-04-18T10:13:57.356Z,9.99
2023-04-18T10:14:57.357Z,10.04
2023-04-18T10:15:57.380Z,9.88
2023-04-18T10:16:57.348Z,10.02
2023-04-18T10:18:58.348Z,10.20
2023-04-18T10:19:57.302Z,10.20
2023-04-18T10:20:57.301Z,10.25
2023-04-18T10:21:57.300Z,10.29
2023-04-18T10:22:57.323Z,10.29
2023-04-18T10:23:57.295Z,10.38
2023-04-18T10:24:57.250Z,10.22
2023-04-18T10:25:57.267Z,10.25
2023-04-18T10:26:57.272Z,10.09
2023-04-18T10:27:57.234Z,9.89
2023-04-18T10:28:57.398Z,10.09
2023-04-18T10:29:57.206Z,10.01
2023-04-18T10:30:57.207Z,10.06
2023-04-18T10:31:57.327Z,10.07
2023-04-18T10:32:57.193Z,10.07
2023-04-18T10:34:04.742Z,10.28
2023-04-18T10:34:59.158Z,10.34
2023-04-18T10:35:57.151Z,10.38
2023-04-18T10:36:57.171Z,10.35
2023-04-18T10:37:57.128Z,10.34
2023-04-18T10:38:57.131Z,10.38
2023-04-18T10:39:57.119Z,10.44
2023-04-18T10:40:57.104Z,10.44
2023-04-18T10:41:57.100Z,10.44
2023-04-18T10:42:57.094Z,10.42
2023-04-18T10:43:57.079Z,10.36
2023-04-18T10:44:57.066Z,10.38
2023-04-18T10:45:57.129Z,10.43
2023-04-18T10:46:57.096Z,10.43
2023-04-18T10:47:57.073Z,10.46
2023-04-18T10:48:57.014Z,10.55
2023-04-18T10:49:57.019Z,10.52
2023-04-18T10:50:57.004Z,10.70
2023-04-18T10:51:56.991Z,10.76
2023-04-18T10:52:56.993Z,10.80
2023-04-18T10:53:57.968Z,10.84
2023-04-18T10:54:58.989Z,11.03
2023-04-18T10:55:57.940Z,11.01
2023-04-18T10:56:56.945Z,11.13
2023-04-18T10:57:56.925Z,11.20
2023-04-18T10:58:56.918Z,11.19
2023-04-18T10:59:56.921Z,11.26
2023-04-18T11:00:56.934Z,10.88
2023-04-18T11:01:56.923Z,10.93
2023-04-18T11:02:57.025Z,10.72
2023-04-18T11:03:56.940Z,10.86
2023-04-18T11:04:56.859Z,11.01
2023-04-18T11:05:56.855Z,11.26
2023-04-18T11:06:56.853Z,11.63
2023-04-18T11:07:56.828Z,11.69
2023-04-18T11:08:56.810Z,12.05
2023-04-18T11:09:56.807Z,11.88
2023-04-18T11:10:56.853Z,11.67
2023-04-18T11:11:56.789Z,11.59
2023-04-18T11:12:56.831Z,11.63
2023-04-18T11:13:56.767Z,11.59
2023-04-18T11:14:56.751Z,11.57
2023-04-18T11:15:56.738Z,11.38
2023-04-18T11:16:56.772Z,11.24
2023-04-18T11:17:56.814Z,11.05
2023-04-18T11:18:56.714Z,11.01
2023-04-18T11:19:56.696Z,11.09
2023-04-18T11:20:56.688Z,11.26
2023-04-18T11:21:56.688Z,11.17
2023-04-18T11:22:56.661Z,11.26
2023-04-18T11:23:56.655Z,11.27
2023-04-18T11:24:56.647Z,11.24
2023-04-18T11:25:56.686Z,11.39
2023-04-18T11:26:56.647Z,11.44
2023-04-18T11:27:56.616Z,11.60
2023-04-18T11:28:56.604Z,11.57
2023-04-18T11:29:56.595Z,11.45
2023-04-18T11:30:56.589Z,11.36
2023-04-18T11:31:58.580Z,11.42
2023-04-18T11:32:57.584Z,11.28
2023-04-18T11:33:56.588Z,11.28
2023-04-18T11:34:56.547Z,11.11
2023-04-18T11:35:56.525Z,11.01
2023-04-18T11:36:56.536Z,11.09
2023-04-18T11:37:56.514Z,11.09
2023-04-18T11:38:56.494Z,11.12
2023-04-18T11:39:56.492Z,11.06
2023-04-18T11:40:56.474Z,11.24
2023-04-18T11:41:56.474Z,11.01
2023-04-18T11:42:56.475Z,11.19
2023-04-18T11:43:56.453Z,11.02
2023-04-18T11:44:56.434Z,11.02
2023-04-18T11:45:56.533Z,11.02
2023-04-18T11:46:56.424Z,11.16
2023-04-18T11:47:56.459Z,11.21
2023-04-18T11:48:56.385Z,11.24
2023-04-18T11:49:57.166Z,11.27
2023-04-18T11:50:57.362Z,11.38
2023-04-18T11:51:56.369Z,11.35
2023-04-18T11:52:56.365Z,11.30
2023-04-18T11:53:56.331Z,11.21
2023-04-18T11:54:56.338Z,11.17
2023-04-18T11:55:56.322Z,11.21
2023-04-18T11:56:56.325Z,11.27
2023-04-18T11:57:56.326Z,11.20
2023-04-18T11:58:56.296Z,11.17
2023-04-18T11:59:56.290Z,11.30
2023-04-18T12:00:56.275Z,11.36
2023-04-18T12:01:58.620Z,11.46
2023-04-18T12:02:57.309Z,11.63
2023-04-18T12:03:56.424Z,11.77
2023-04-18T12:04:56.461Z,11.69
2023-04-18T12:05:56.354Z,11.78
2023-04-18T12:06:56.221Z,11.81
2023-04-18T12:07:56.222Z,12.05
2023-04-18T12:08:56.188Z,12.26
2023-04-18T12:09:56.187Z,12.41
2023-04-18T12:10:56.162Z,12.23
2023-04-18T12:11:56.194Z,12.21
2023-04-18T12:12:56.151Z,12.25
2023-04-18T12:13:56.131Z,12.22
2023-04-18T12:14:56.360Z,12.34
2023-04-18T12:15:56.182Z,12.16
2023-04-18T12:16:56.110Z,11.88
2023-04-18T12:17:56.126Z,11.88
2023-04-18T12:18:56.082Z,11.96
2023-04-18T12:19:56.086Z,12.12
2023-04-18T12:20:56.062Z,12.03
2023-04-18T12:21:56.068Z,12.07
2023-04-18T12:22:56.042Z,12.15
2023-04-18T12:23:56.037Z,12.29
2023-04-18T12:24:56.031Z,12.26
2023-04-18T12:25:56.022Z,12.16
2023-04-18T12:26:56.017Z,12.16
2023-04-18T12:27:55.994Z,12.01
2023-04-18T12:28:55.994Z,11.98
2023-04-18T12:29:55.966Z,11.90
2023-04-18T12:30:55.977Z,11.94
2023-04-18T12:31:56.022Z,11.93
2023-04-18T12:32:56.009Z,11.97
2023-04-18T12:33:55.940Z,11.90
2023-04-18T12:34:55.913Z,11.98
2023-04-18T12:35:55.895Z,11.97
2023-04-18T12:36:55.902Z,11.84
2023-04-18T12:37:55.933Z,11.93
2023-04-18T12:38:55.877Z,11.78
2023-04-18T12:39:55.865Z,11.77
2023-04-18T12:40:55.874Z,11.64
2023-04-18T12:41:55.880Z,11.66
2023-04-18T12:42:55.831Z,11.69
2023-04-18T12:43:55.836Z,11.75
2023-04-18T12:44:55.812Z,11.75
2023-04-18T12:45:55.814Z,11.78
2023-04-18T12:46:55.998Z,11.70
2023-04-18T12:47:55.846Z,11.88
2023-04-18T12:48:55.758Z,11.90
2023-04-18T12:49:55.762Z,11.79
2023-04-18T12:50:55.743Z,11.75
2023-04-18T12:51:55.745Z,11.75
2023-04-18T12:52:55.743Z,11.85
2023-04-18T12:53:55.725Z,11.85
2023-04-18T12:54:55.713Z,11.93
2023-04-18T12:55:55.689Z,11.75
2023-04-18T12:56:55.708Z,11.75
2023-04-18T12:57:55.675Z,11.74
2023-04-18T12:58:55.658Z,11.57
2023-04-18T12:59:55.649Z,11.53
2023-04-18T13:00:55.703Z,11.57
2023-04-18T13:01:55.711Z,11.56
2023-04-18T13:02:55.766Z,11.56
2023-04-18T13:04:08.316Z,11.63
2023-04-18T13:04:57.694Z,11.54
2023-04-18T13:05:55.614Z,11.38
2023-04-18T13:06:55.585Z,11.44
2023-04-18T13:08:08.558Z,11.51
2023-04-18T13:08:57.566Z,11.63
2023-04-18T13:09:55.595Z,11.49
2023-04-18T13:10:55.570Z,11.64
2023-04-18T13:11:55.591Z,11.66
2023-04-18T13:12:55.552Z,11.70